createdAt,value
2022-12-08T00:01:24.481Z,88.70
2022-12-08T00:03:53.189Z,88.38
2022-12-08T00:06:42.924Z,87.05
2022-12-08T00:09:24.860Z,90.61
2022-12-08T00:11:55.080Z,90.62
2022-12-08T00:14:27.498Z,90.74
2022-12-08T00:16:55.562Z,91.40
2022-12-08T00:19:23.996Z,90.17
2022-12-08T00:21:52.617Z,92.41
2022-12-08T00:24:21.185Z,92.98
2022-12-08T00:26:49.384Z,93.31
2022-12-08T00:29:17.966Z,91.36
2022-12-08T00:31:47.739Z,91.55
2022-12-08T00:34:16.147Z,90.65
2022-12-08T00:36:44.447Z,91.10
2022-12-08T00:39:13.497Z,91.53
2022-12-08T00:41:58.661Z,91.08
2022-12-08T00:44:26.456Z,90.62
2022-12-08T00:46:55.739Z,89.18
2022-12-08T00:49:23.845Z,91.43
2022-12-08T00:51:51.899Z,92.05
2022-12-08T00:54:20.008Z,92.19
2022-12-08T00:56:47.881Z,91.75
2022-12-08T00:59:16.116Z,89.83
2022-12-08T01:01:45.536Z,93.28
2022-12-08T01:04:17.076Z,92.08
2022-12-08T01:06:45.659Z,91.52
2022-12-08T01:09:14.951Z,92.27
2022-12-08T01:11:44.355Z,91.80
2022-12-08T01:14:12.380Z,92.16
2022-12-08T01:16:41.433Z,92.75
2022-12-08T01:19:11.182Z,92.37
2022-12-08T01:21:41.041Z,93.68
2022-12-08T01:24:12.475Z,94.29
2022-12-08T01:26:40.568Z,94.10
2022-12-08T01:29:08.373Z,96.65
2022-12-08T01:31:36.218Z,100.00
2022-12-08T01:34:04.248Z,97.93
2022-12-08T01:36:33.439Z,94.01
2022-12-08T01:39:03.647Z,93.66
2022-12-08T01:41:33.589Z,93.14
2022-12-08T01:44:03.172Z,93.28
2022-12-08T01:46:32.333Z,93.79
2022-12-08T01:49:04.923Z,91.82
2022-12-08T01:51:36.848Z,91.97
2022-12-08T01:54:08.222Z,93.56
2022-12-08T01:56:40.776Z,93.14
2022-12-08T01:59:08.752Z,94.21
2022-12-08T02:01:36.855Z,94.98
2022-12-08T02:04:05.319Z,93.37
2022-12-08T02:06:37.316Z,90.73
2022-12-08T02:09:07.150Z,89.79
2022-12-08T02:11:35.248Z,91.40
2022-12-08T02:14:06.842Z,88.05
2022-12-08T02:16:43.443Z,89.19
2022-12-08T02:19:43.387Z,86.99
2022-12-08T02:22:15.831Z,88.22
2022-12-08T02:24:50.398Z,89.11
2022-12-08T02:27:39.072Z,89.21
2022-12-08T02:30:24.822Z,90.16
2022-12-08T02:33:28.661Z,90.23
2022-12-08T02:36:06.067Z,89.86
2022-12-08T02:38:45.258Z,88.88
2022-12-08T02:41:25.582Z,90.07
2022-12-08T02:44:01.715Z,90.15
2022-12-08T02:46:33.709Z,90.61
2022-12-08T02:49:02.152Z,90.32
2022-12-08T02:51:31.306Z,90.59
2022-12-08T02:53:59.840Z,91.70
2022-12-08T02:56:42.617Z,91.54
2022-12-08T02:59:26.777Z,91.23
2022-12-08T03:02:08.052Z,91.53
2022-12-08T03:04:44.487Z,91.40
2022-12-08T03:07:21.115Z,93.28
2022-12-08T03:09:57.653Z,89.85
2022-12-08T03:12:31.817Z,88.14
2022-12-08T03:15:07.808Z,89.75
2022-12-08T03:17:37.817Z,88.79
2022-12-08T03:20:10.315Z,90.22
2022-12-08T03:22:42.633Z,90.69
2022-12-08T03:25:14.284Z,92.70
2022-12-08T03:27:42.721Z,92.29
2022-12-08T03:30:11.353Z,92.03
2022-12-08T03:32:47.488Z,91.39
2022-12-08T03:35:17.746Z,89.31
2022-12-08T03:37:46.959Z,88.16
2022-12-08T03:40:17.842Z,84.98
2022-12-08T03:42:45.604Z,82.94
2022-12-08T03:45:13.535Z,83.84
2022-12-08T03:47:41.325Z,83.40
2022-12-08T03:50:09.708Z,84.32
2022-12-08T03:52:37.517Z,83.16
2022-12-08T03:55:07.964Z,84.13
2022-12-08T03:57:35.684Z,87.62
2022-12-08T04:00:04.562Z,85.71
2022-12-08T04:02:32.676Z,87.05
2022-12-08T04:05:00.516Z,88.70
2022-12-08T04:07:28.359Z,89.67
2022-12-08T04:09:56.116Z,89.92
2022-12-08T04:12:25.305Z,87.66
2022-12-08T04:14:53.098Z,85.52
2022-12-08T04:17:20.852Z,83.09
2022-12-08T04:19:48.611Z,85.59
2022-12-08T04:22:16.452Z,86.98
2022-12-08T04:24:44.244Z,86.17
2022-12-08T04:27:12.032Z,87.84
2022-12-08T04:29:42.075Z,87.86
2022-12-08T04:32:09.823Z,86.84
2022-12-08T04:34:37.592Z,87.37
2022-12-08T04:37:05.300Z,89.48
2022-12-08T04:39:33.136Z,89.26
2022-12-08T04:42:00.888Z,90.90
2022-12-08T04:44:28.603Z,89.85
2022-12-08T04:46:57.811Z,92.12
2022-12-08T04:49:25.644Z,89.66
2022-12-08T04:51:53.448Z,87.61
2022-12-08T04:54:21.253Z,90.70
2022-12-08T04:56:49.131Z,90.26
2022-12-08T04:59:16.887Z,89.00
2022-12-08T05:01:44.842Z,89.41
2022-12-08T05:04:14.088Z,90.21
2022-12-08T05:06:41.907Z,89.43
2022-12-08T05:09:10.087Z,90.74
2022-12-08T05:11:48.338Z,92.00
2022-12-08T05:14:18.866Z,91.70
2022-12-08T05:16:47.222Z,91.35
2022-12-08T05:19:17.177Z,92.76
2022-12-08T05:21:45.589Z,92.35
2022-12-08T05:24:13.464Z,92.29
2022-12-08T05:26:41.242Z,94.60
2022-12-08T05:29:09.016Z,92.87
2022-12-08T05:31:36.868Z,93.39
2022-12-08T05:34:04.944Z,92.23
2022-12-08T05:36:34.200Z,93.03
2022-12-08T05:39:02.000Z,92.20
2022-12-08T05:41:29.769Z,92.61
2022-12-08T05:43:57.600Z,94.32
2022-12-08T05:46:25.427Z,93.70
2022-12-08T05:48:53.260Z,94.12
2022-12-08T05:51:24.142Z,92.41
2022-12-08T05:53:54.132Z,95.92
2022-12-08T05:56:22.791Z,94.26
2022-12-08T05:58:51.018Z,95.62
2022-12-08T06:01:23.448Z,95.96
2022-12-08T06:03:51.653Z,96.35
2022-12-08T06:06:19.662Z,95.52
2022-12-08T06:08:47.512Z,95.83
2022-12-08T06:11:21.939Z,94.94
2022-12-08T06:13:50.107Z,93.88
2022-12-08T06:16:18.645Z,95.01
2022-12-08T06:18:46.497Z,95.23
2022-12-08T06:21:16.241Z,95.78
2022-12-08T06:23:44.547Z,94.10
2022-12-08T06:26:14.168Z,95.56
2022-12-08T06:28:44.065Z,96.58
2022-12-08T06:31:14.632Z,95.35
2022-12-08T06:33:42.785Z,95.77
2022-12-08T06:36:12.935Z,94.52
2022-12-08T06:38:43.664Z,95.58
2022-12-08T06:41:13.101Z,95.00
2022-12-08T06:43:41.993Z,94.28
2022-12-08T06:46:15.009Z,95.85
2022-12-08T06:48:42.914Z,95.68
2022-12-08T06:51:12.602Z,94.44
2022-12-08T06:53:41.179Z,94.05
2022-12-08T06:56:09.723Z,95.68
2022-12-08T06:58:37.943Z,97.01
2022-12-08T07:01:07.714Z,96.06
2022-12-08T07:03:37.317Z,96.56
2022-12-08T07:06:05.928Z,96.81
2022-12-08T07:08:34.273Z,95.91
2022-12-08T07:11:07.918Z,94.32
2022-12-08T07:13:35.531Z,94.99
2022-12-08T07:16:06.625Z,94.68
2022-12-08T07:18:35.932Z,93.67
2022-12-08T07:21:05.210Z,94.76
2022-12-08T07:23:33.011Z,94.66
2022-12-08T07:26:03.247Z,94.46
2022-12-08T07:28:32.628Z,93.98
2022-12-08T07:31:00.898Z,96.68
2022-12-08T07:33:29.077Z,95.86
2022-12-08T07:36:00.074Z,95.02
2022-12-08T07:38:29.136Z,95.76
2022-12-08T07:40:56.978Z,95.24
2022-12-08T07:43:25.012Z,96.91
2022-12-08T07:45:53.146Z,96.29
2022-12-08T07:48:21.017Z,97.24
2022-12-08T07:50:49.220Z,95.50
2022-12-08T07:53:18.417Z,95.13
2022-12-08T07:55:46.324Z,94.28
2022-12-08T07:58:14.102Z,93.00
2022-12-08T08:00:41.891Z,94.25
2022-12-08T08:03:11.429Z,94.50
2022-12-08T08:05:39.560Z,95.87
2022-12-08T08:08:07.579Z,95.77
2022-12-08T08:10:36.806Z,95.30
2022-12-08T08:13:07.529Z,94.08
2022-12-08T08:15:35.629Z,91.80
2022-12-08T08:18:03.575Z,91.17
2022-12-08T08:20:31.350Z,91.54
2022-12-08T08:22:59.189Z,93.02
2022-12-08T08:25:26.963Z,95.53
2022-12-08T08:27:56.800Z,93.85
2022-12-08T08:30:26.009Z,93.94
2022-12-08T08:32:53.942Z,92.24
2022-12-08T08:35:21.747Z,93.02
2022-12-08T08:37:49.797Z,94.36
2022-12-08T08:40:18.377Z,95.73
2022-12-08T08:42:46.173Z,94.52
2022-12-08T08:45:15.396Z,94.10
2022-12-08T08:47:43.209Z,93.99
2022-12-08T08:50:11.322Z,91.28
2022-12-08T08:52:39.075Z,93.50
2022-12-08T08:55:07.900Z,93.63
2022-12-08T08:57:35.731Z,92.01
2022-12-08T09:00:05.153Z,92.84
2022-12-08T09:02:34.625Z,95.78
2022-12-08T09:05:02.487Z,94.41
2022-12-08T09:07:30.434Z,93.91
2022-12-08T09:10:01.813Z,92.44
2022-12-08T09:12:29.990Z,94.69
2022-12-08T09:14:57.772Z,94.07
2022-12-08T09:17:25.550Z,93.25
2022-12-08T09:19:54.670Z,93.29
2022-12-08T09:22:23.726Z,93.51
2022-12-08T09:24:51.527Z,95.70
2022-12-08T09:27:19.568Z,93.71
2022-12-08T09:29:47.427Z,96.10
2022-12-08T09:32:15.207Z,95.66
2022-12-08T09:34:45.357Z,96.39
2022-12-08T09:37:18.338Z,93.75
2022-12-08T09:39:46.098Z,96.26
2022-12-08T09:42:14.761Z,95.09
2022-12-08T09:44:57.398Z,95.53
2022-12-08T09:47:35.313Z,94.70
2022-12-08T09:50:08.453Z,95.97
2022-12-08T09:52:42.653Z,94.62
2022-12-08T09:55:18.039Z,95.97
2022-12-08T09:57:45.915Z,95.71
2022-12-08T10:00:15.322Z,95.88
2022-12-08T10:02:45.639Z,95.34
2022-12-08T10:05:15.715Z,96.24
2022-12-08T10:07:48.488Z,94.69
2022-12-08T10:10:29.244Z,97.01
2022-12-08T10:13:05.332Z,95.07
2022-12-08T10:15:45.422Z,95.82
2022-12-08T10:18:17.207Z,95.40
2022-12-08T10:20:47.310Z,94.87
2022-12-08T10:23:28.656Z,96.93
2022-12-08T10:26:01.603Z,94.18
2022-12-08T10:28:29.475Z,96.15
2022-12-08T10:30:57.482Z,96.67
2022-12-08T10:33:25.362Z,95.73
2022-12-08T10:35:55.119Z,95.28
2022-12-08T10:38:28.277Z,96.50
2022-12-08T10:41:04.089Z,94.52
2022-12-08T10:43:33.091Z,96.62
2022-12-08T10:46:10.973Z,96.87
2022-12-08T10:48:49.285Z,96.13
2022-12-08T10:51:25.251Z,95.84
2022-12-08T10:53:54.573Z,96.28
2022-12-08T10:56:26.523Z,96.33
2022-12-08T10:59:08.388Z,98.25
2022-12-08T11:01:40.153Z,97.99
2022-12-08T11:04:15.498Z,94.99
2022-12-08T11:06:43.821Z,98.01
2022-12-08T11:09:35.684Z,100.00
2022-12-08T11:12:09.885Z,99.69
2022-12-08T11:14:48.936Z,99.84
2022-12-08T11:17:24.414Z,99.31
2022-12-08T11:19:58.576Z,99.26
2022-12-08T11:22:30.894Z,97.72
2022-12-08T11:25:02.789Z,99.19
2022-12-08T11:27:30.929Z,97.68
2022-12-08T11:29:58.765Z,100.00
2022-12-08T11:32:26.733Z,99.58
2022-12-08T11:34:59.094Z,98.41
2022-12-08T11:37:35.175Z,97.89
2022-12-08T11:40:08.823Z,98.30
2022-12-08T11:42:39.542Z,96.94
2022-12-08T11:45:13.827Z,97.66
2022-12-08T11:47:49.041Z,96.84
2022-12-08T11:50:25.731Z,98.17
2022-12-08T11:52:53.608Z,97.95
2022-12-08T11:55:37.055Z,96.05
2022-12-08T11:58:17.685Z,92.55
2022-12-08T12:00:45.637Z,94.42
2022-12-08T12:03:26.506Z,95.36
2022-12-08T12:09:14.780Z,96.13
2022-12-08T12:12:11.974Z,95.33
2022-12-08T12:14:58.514Z,93.37
2022-12-08T12:17:40.844Z,94.42
2022-12-08T12:20:18.484Z,95.66
2022-12-08T12:22:50.697Z,95.64
2022-12-08T12:25:22.683Z,94.60
2022-12-08T12:27:57.312Z,95.78
2022-12-08T12:30:27.696Z,95.66
2022-12-08T12:32:59.391Z,95.81
2022-12-08T12:35:34.343Z,97.88
2022-12-08T12:38:25.703Z,97.02
2022-12-08T12:41:01.488Z,96.15
2022-12-08T12:43:33.380Z,96.03
2022-12-08T12:46:34.793Z,98.55
2022-12-08T12:49:35.760Z,99.68
2022-12-08T12:52:03.693Z,99.36
2022-12-08T12:54:31.553Z,99.15
2022-12-08T12:57:22.478Z,100.00
2022-12-08T13:00:09.466Z,99.39
2022-12-08T13:02:40.873Z,98.99
2022-12-08T13:05:12.391Z,99.58
2022-12-08T13:07:46.069Z,100.00
2022-12-08T13:10:20.470Z,100.00
2022-12-08T13:13:04.548Z,100.00
2022-12-08T13:15:38.100Z,98.35
2022-12-08T13:18:06.632Z,98.17
2022-12-08T13:20:43.363Z,100.00
2022-12-08T13:23:27.816Z,100.00
2022-12-08T13:26:13.011Z,100.00
2022-12-08T13:29:14.995Z,99.79
2022-12-08T13:31:50.676Z,100.00
2022-12-08T13:34:23.612Z,100.00
2022-12-08T13:37:01.240Z,100.00
2022-12-08T13:39:33.508Z,100.00
2022-12-08T13:42:07.030Z,100.00
2022-12-08T13:45:18.716Z,100.00
2022-12-08T13:47:34.683Z,100.00
2022-12-08T13:51:10.536Z,100.00
2022-12-08T13:58:39.673Z,99.85
2022-12-08T14:01:11.878Z,100.00
2022-12-08T14:04:20.393Z,98.39
2022-12-08T14:06:42.861Z,100.00
2022-12-08T14:09:15.818Z,99.60
2022-12-08T14:11:47.768Z,100.00
2022-12-08T14:14:32.613Z,100.00
2022-12-08T14:17:10.897Z,100.00
2022-12-08T14:19:40.705Z,100.00
2022-12-08T14:22:13.084Z,99.40
2022-12-08T14:24:45.108Z,99.30
2022-12-08T14:27:17.301Z,97.11
2022-12-08T14:29:47.390Z,99.15
2022-12-08T14:32:24.504Z,99.20
2022-12-08T14:34:55.749Z,99.49
2022-12-08T14:37:26.167Z,99.31
2022-12-08T14:39:58.610Z,100.00
2022-12-08T14:42:28.199Z,100.00
2022-12-08T14:45:07.581Z,99.84
2022-12-08T14:47:36.073Z,99.27
2022-12-08T14:50:27.391Z,100.00
2022-12-08T14:52:55.203Z,100.00
2022-12-08T14:55:23.076Z,100.00
2022-12-08T14:57:51.013Z,99.69
2022-12-08T15:00:23.341Z,99.37
2022-12-08T15:02:51.395Z,100.00
2022-12-08T15:05:22.297Z,99.62
2022-12-08T15:07:52.498Z,100.00
2022-12-08T15:10:25.124Z,100.00
2022-12-08T15:13:05.707Z,98.56
2022-12-08T15:15:48.118Z,98.98
2022-12-08T15:18:18.464Z,100.00
2022-12-08T15:20:51.084Z,100.00
2022-12-08T15:23:22.772Z,100.00
2022-12-08T15:25:50.996Z,100.00
2022-12-08T15:28:22.068Z,100.00
2022-12-08T15:30:53.550Z,100.00
2022-12-08T15:33:21.537Z,100.00
2022-12-08T15:35:51.396Z,100.00
2022-12-08T15:38:23.119Z,100.00
2022-12-08T15:40:50.955Z,100.00
2022-12-08T15:43:18.701Z,99.09
2022-12-08T15:45:58.030Z,100.00
2022-12-08T15:48:29.502Z,100.00
2022-12-08T15:50:58.779Z,99.95
2022-12-08T15:53:26.942Z,100.00
2022-12-08T15:58:58.788Z,100.00
2022-12-08T16:01:27.284Z,100.00
2022-12-08T16:09:39.381Z,99.80
2022-12-08T16:12:25.496Z,99.35
2022-12-08T16:17:42.037Z,100.00
2022-12-08T16:20:14.789Z,100.00
2022-12-08T16:22:54.460Z,99.43
2022-12-08T16:25:36.408Z,100.00
2022-12-08T16:28:45.335Z,100.00
2022-12-08T16:31:02.145Z,100.00
2022-12-08T16:33:30.069Z,100.00
2022-12-08T16:35:57.796Z,100.00
2022-12-08T16:38:27.098Z,100.00
2022-12-08T16:41:08.692Z,100.00
2022-12-08T16:43:36.572Z,100.00
2022-12-08T16:46:04.605Z,100.00
2022-12-08T16:48:32.638Z,100.00
2022-12-08T16:51:00.420Z,99.95
2022-12-08T16:53:29.606Z,99.81
2022-12-08T16:55:57.377Z,99.78
2022-12-08T16:58:25.164Z,99.86
2022-12-08T17:00:53.205Z,100.00
2022-12-08T17:03:21.148Z,100.00
2022-12-08T17:05:48.980Z,99.06
2022-12-08T17:08:16.951Z,98.95
2022-12-08T17:11:06.183Z,98.35
2022-12-08T17:13:34.336Z,98.65
2022-12-08T17:16:02.145Z,97.38
2022-12-08T17:18:29.966Z,96.61
2022-12-08T17:20:57.777Z,97.88
2022-12-08T17:23:25.554Z,97.38
2022-12-08T17:26:00.252Z,96.72
2022-12-08T17:28:51.946Z,97.17
2022-12-08T17:31:17.481Z,97.23
2022-12-08T17:33:45.876Z,97.23
2022-12-08T17:36:15.742Z,95.80
2022-12-08T17:38:44.045Z,96.59
2022-12-08T17:41:13.292Z,96.26
2022-12-08T17:43:41.299Z,95.56
2022-12-08T17:46:09.151Z,97.04
2022-12-08T17:48:37.174Z,95.05
2022-12-08T17:51:04.970Z,94.46
2022-12-08T17:53:37.234Z,96.31
2022-12-08T17:56:05.687Z,95.68
2022-12-08T17:58:35.333Z,95.87
2022-12-08T18:01:08.458Z,96.21
2022-12-08T18:03:36.316Z,96.77
2022-12-08T18:06:06.183Z,97.01
2022-12-08T18:08:33.951Z,95.31
2022-12-08T18:11:01.755Z,96.70
2022-12-08T18:13:29.613Z,96.97
2022-12-08T18:15:59.129Z,96.23
2022-12-08T18:18:26.952Z,97.21
2022-12-08T18:20:54.699Z,97.54
2022-12-08T18:23:22.632Z,98.14
2022-12-08T18:25:50.327Z,99.59
2022-12-08T18:28:18.071Z,100.00
2022-12-08T18:30:45.924Z,99.52
2022-12-08T18:33:15.007Z,99.88
2022-12-08T18:35:42.958Z,100.00
2022-12-08T18:38:10.751Z,100.00
2022-12-08T18:40:38.671Z,100.00
2022-12-08T18:43:06.532Z,99.51
2022-12-08T18:45:36.753Z,97.70
2022-12-08T18:48:05.201Z,97.03
2022-12-08T18:50:34.395Z,98.91
2022-12-08T18:53:02.212Z,98.26
2022-12-08T18:55:29.960Z,99.90
2022-12-08T18:57:57.810Z,100.00
2022-12-08T19:00:25.761Z,97.48
2022-12-08T19:02:53.590Z,97.04
2022-12-08T19:05:21.532Z,94.62
2022-12-08T19:07:52.170Z,95.52
2022-12-08T19:10:20.047Z,96.33
2022-12-08T19:12:50.888Z,96.70
2022-12-08T19:15:18.798Z,97.63
2022-12-08T19:17:46.834Z,97.81
2022-12-08T19:20:15.527Z,98.34
2022-12-08T19:22:43.269Z,97.98
2022-12-08T19:25:12.467Z,98.69
2022-12-08T19:27:40.188Z,99.07
2022-12-08T19:30:09.736Z,96.98
2022-12-08T19:32:37.684Z,96.91
2022-12-08T19:35:07.468Z,98.48
2022-12-08T19:37:35.648Z,97.03
2022-12-08T19:40:21.073Z,97.44
2022-12-08T19:43:07.673Z,97.30
2022-12-08T19:45:36.633Z,97.02
2022-12-08T19:48:06.200Z,97.49
2022-12-08T19:50:37.304Z,97.74
2022-12-08T19:53:07.185Z,97.75
2022-12-08T19:55:35.452Z,100.00
2022-12-08T19:58:04.938Z,100.00
2022-12-08T20:00:34.454Z,98.71
2022-12-08T20:03:03.357Z,99.41
2022-12-08T20:05:32.140Z,98.93
2022-12-08T20:08:00.311Z,97.83
2022-12-08T20:10:30.412Z,98.32
2022-12-08T20:13:12.213Z,99.51
2022-12-08T20:15:41.978Z,98.33
2022-12-08T20:18:10.084Z,97.58
2022-12-08T20:20:38.025Z,97.00
2022-12-08T20:23:05.905Z,98.98
2022-12-08T20:25:33.675Z,97.30
2022-12-08T20:28:01.598Z,97.47
2022-12-08T20:30:29.474Z,98.65
2022-12-08T20:32:58.837Z,98.68
2022-12-08T20:35:26.755Z,98.07
2022-12-08T20:37:54.627Z,99.47
2022-12-08T20:40:22.354Z,98.30
2022-12-08T20:42:50.138Z,97.36
2022-12-08T20:45:17.963Z,98.39
2022-12-08T20:47:45.807Z,98.48
2022-12-08T20:50:15.223Z,97.45
2022-12-08T20:52:43.122Z,96.81
2022-12-08T20:55:11.700Z,98.03
2022-12-08T20:57:39.560Z,98.86
2022-12-08T21:00:08.782Z,96.38
2022-12-08T21:02:43.266Z,97.03
2022-12-08T21:05:16.501Z,96.97
2022-12-08T21:07:45.175Z,96.99
2022-12-08T21:10:13.276Z,97.46
2022-12-08T21:12:41.213Z,96.99
2022-12-08T21:15:12.044Z,97.10
2022-12-08T21:17:39.973Z,96.91
2022-12-08T21:20:09.432Z,95.34
2022-12-08T21:22:39.892Z,95.60
2022-12-08T21:25:09.273Z,94.99
2022-12-08T21:27:38.127Z,96.18
2022-12-08T21:30:07.725Z,96.21
2022-12-08T21:32:36.163Z,95.78
2022-12-08T21:35:04.352Z,95.41
2022-12-08T21:37:32.291Z,95.76
2022-12-08T21:40:01.488Z,96.37
2022-12-08T21:42:47.258Z,96.88
2022-12-08T21:45:16.890Z,96.46
2022-12-08T21:47:45.273Z,95.71
2022-12-08T21:50:14.685Z,95.95
2022-12-08T21:52:44.783Z,94.58
2022-12-08T21:55:14.725Z,93.94
2022-12-08T21:57:42.808Z,94.78
2022-12-08T22:00:16.169Z,95.19
2022-12-08T22:02:44.938Z,93.59
2022-12-08T22:05:13.050Z,95.15
2022-12-08T22:07:42.021Z,95.46
2022-12-08T22:10:11.529Z,95.39
2022-12-08T22:12:41.454Z,94.44
2022-12-08T22:15:11.350Z,94.94
2022-12-08T22:17:41.298Z,95.84
2022-12-08T22:20:12.435Z,95.86
2022-12-08T22:22:40.958Z,96.41
2022-12-08T22:25:12.684Z,95.41
2022-12-08T22:27:42.682Z,97.28
2022-12-08T22:30:11.983Z,96.65
2022-12-08T22:32:40.322Z,98.63
2022-12-08T22:35:08.828Z,99.08
2022-12-08T22:37:36.633Z,99.00
2022-12-08T22:40:05.376Z,97.08
2022-12-08T22:42:33.527Z,95.45
2022-12-08T22:45:02.832Z,97.98
2022-12-08T22:47:30.655Z,97.72
2022-12-08T22:49:58.612Z,97.79
2022-12-08T22:52:26.469Z,98.61
2022-12-08T22:54:54.321Z,96.34
2022-12-08T22:57:22.311Z,96.46
2022-12-08T22:59:50.241Z,95.77
2022-12-08T23:02:19.385Z,97.60
2022-12-08T23:04:47.317Z,96.83
2022-12-08T23:07:15.646Z,98.99
2022-12-08T23:09:44.441Z,97.42
2022-12-08T23:12:12.281Z,97.98
2022-12-08T23:14:40.092Z,98.54
2022-12-08T23:17:08.333Z,98.00
2022-12-08T23:19:39.434Z,98.13
2022-12-08T23:22:07.500Z,98.11
2022-12-08T23:24:35.348Z,97.83
2022-12-08T23:27:03.268Z,96.95
2022-12-08T23:29:31.402Z,95.72
2022-12-08T23:31:59.329Z,95.86
2022-12-08T23:34:27.352Z,97.22
2022-12-08T23:36:56.460Z,96.85
2022-12-08T23:39:24.766Z,95.61
2022-12-08T23:41:52.904Z,95.95
2022-12-08T23:44:20.830Z,97.13
2022-12-08T23:46:48.687Z,96.30
2022-12-08T23:49:16.950Z,98.02
2022-12-08T23:51:44.808Z,98.04
2022-12-08T23:54:13.935Z,96.59
2022-12-08T23:56:42.208Z,96.49
2022-12-08T23:59:10.139Z,94.85
